Juliustown, NJ (08042)

8:56 PM EDT on September 04, 2015 (GMT -0400)
Arneys Mount Road | | Change Station
CLOSE
Current Station
Personal Weather Station
Location: Pemberton, NJ
Elevation: 66 ft
Nearby Weather Stations

Elev 66 ft 40.00 °N, 74.69 °W | Updated 8 seconds ago

Overcast
Overcast
73.0 °F
Feels Like 77 °F
N
0.0
Wind Variable Wind from East
Gusts 0.0 mph

Today
High -- | Low -- °F
--% Chance of Precip.
Yesterday
High -- | Low -- °F
Precip. -- in
6:29 AM 7:25 PM
Waning Gibbous, 54% visible
Pressure 30.12 in
Visibility 10.0 miles
Clouds Overcast 1900 ft
Heat Index 77 °F
Dew Point 47 °F
Humidity 40%
Rainfall 0.00 in
Snow Depth Not available.
UV 0 out of 12
Pollen 9.80 out of 12
Air Quality Not available.
Flu Activity Not available.
SPECI KWRI 050053Z AUTO 07008KT 10SM OVC019 23/20 A3012 RMK AO2
Pressure 30.12 in
Visibility 10.0 miles
Clouds Overcast 1900 ft
Heat Index 77 °F
Dew Point 47 °F
Humidity 40%
Rainfall 0.00 in
Snow Depth Not available.
UV 0 out of 12
Pollen 9.80 out of 12
Air Quality Not available.
Flu Activity Not available.
SPECI KWRI 050053Z AUTO 07008KT 10SM OVC019 23/20 A3012 RMK AO2

10-Day Weather Forecast

×

Almanac

Astronomy

Sep. 04, 2015 Rise Set
Actual Time
Civil Twilight
Nautical Twilight
Astronomical Twilight
Moon
Length of Visible Light
Length of Day
Tomorrow will be .
, % of the Moon is Illuminated

Today's Extremes

State Highs State Lows

Community

WunderPhotos

Upload Photos

1,852,367 photos uploaded!

WunderBlogs® & News

Nearby

Air Quality

  Air Quality AQ Index Pollutant
Not available.

Snow Depth

Station Depth Elevation

Earthquake Activity

City Distance Mag. Time & Date
Minimum magnitude displayed is 2.5.

Coastal Water Temperatures

Place Temperature

Stations

Nearby Weather Stations

Station Location Temp. Windchill Dew Point Humidity Wind Precip. Elev Updated Type